KHII

Lake Havasu City Airport

Lake Havasu City, Arizona, USA
METAR KHII 232315Z AUTO 30014KT 10SM CLR 20/M07 A3015 RMK AO2
Observed Flight Rules
Jan-23 @ 23:15 UTC (18 minutes ago) Visual Flight Rules
Wind Visibility Clouds
300° at 14 knots 10 miles
  • Clear skies
Temperatures Readings
Current 20°C / 68°F
Dewpoint -7°C / 19°F
Humidity 16%
Altimeter 30.15" Hg
Pressure 1021 hPa
Elevation 238
METAR KHII 232315Z AUTO 30014KT 10SM CLR 20/M07 A3015 RMK AO2
Observed Flight Rules
Jan-23 @ 23:15 UTC
(18 minutes ago)
VFR
Wind Visibility
300° at 14 knots 10 miles
Clouds
  • Clear skies
Temperature Dewpoint
20°C / 68°F -7°C / 19°F
Humidity Altimeter Pressure
16% 30.15" Hg 1021 hPa